createdAt,value
2023-05-11T00:00:01.986Z,7.67
2023-05-11T00:02:30.127Z,7.66
2023-05-11T00:04:58.316Z,7.49
2023-05-11T00:07:26.446Z,7.53
2023-05-11T00:09:54.146Z,7.53
2023-05-11T00:12:22.187Z,7.52
2023-05-11T00:14:49.783Z,7.49
2023-05-11T00:17:19.556Z,7.54
2023-05-11T00:19:47.276Z,7.42
2023-05-11T00:22:15.390Z,7.50
2023-05-11T00:24:43.072Z,7.38
2023-05-11T00:27:11.372Z,7.36
2023-05-11T00:29:39.173Z,7.34
2023-05-11T00:32:07.174Z,7.38
2023-05-11T00:34:35.144Z,7.37
2023-05-11T00:37:04.345Z,7.37
2023-05-11T00:39:32.242Z,7.27
2023-05-11T00:42:00.898Z,7.28
2023-05-11T00:44:28.521Z,7.29
2023-05-11T00:46:57.723Z,7.31
2023-05-11T00:49:25.497Z,7.04
2023-05-11T00:51:53.460Z,7.06
2023-05-11T00:54:21.337Z,7.08
2023-05-11T00:56:49.434Z,7.04
2023-05-11T00:59:17.239Z,6.80
2023-05-11T01:01:45.690Z,6.98
2023-05-11T01:04:14.146Z,7.32
2023-05-11T01:07:12.276Z,7.29
2023-05-11T01:09:49.917Z,7.39
2023-05-11T01:12:33.737Z,7.27
2023-05-11T01:15:27.629Z,7.47
2023-05-11T01:18:06.450Z,7.26
2023-05-11T01:20:35.720Z,7.02
2023-05-11T01:23:41.930Z,7.05
2023-05-11T01:26:45.451Z,6.99
2023-05-11T01:29:38.495Z,6.89
2023-05-11T01:32:19.809Z,6.74
2023-05-11T01:34:50.729Z,6.71
2023-05-11T01:37:24.812Z,6.58
2023-05-11T01:40:06.307Z,6.46
2023-05-11T01:42:42.055Z,6.54
2023-05-11T01:45:11.764Z,6.55
2023-05-11T01:47:44.198Z,6.48
2023-05-11T01:50:14.155Z,6.61
2023-05-11T01:52:43.277Z,6.50
2023-05-11T01:55:14.844Z,6.39
2023-05-11T01:57:45.161Z,6.44
2023-05-11T02:00:16.096Z,6.67
2023-05-11T02:02:47.592Z,6.71
2023-05-11T02:05:25.108Z,6.64
2023-05-11T02:07:55.000Z,6.65
2023-05-11T02:10:26.825Z,6.47
2023-05-11T02:12:55.720Z,6.47
2023-05-11T02:15:26.799Z,6.52
2023-05-11T02:17:56.072Z,6.30
2023-05-11T02:20:26.077Z,6.40
2023-05-11T02:22:55.959Z,6.29
2023-05-11T02:25:24.528Z,6.23
2023-05-11T02:27:52.525Z,6.06
2023-05-11T02:30:20.852Z,6.01
2023-05-11T02:32:51.854Z,5.91
2023-05-11T02:35:28.676Z,5.85
2023-05-11T02:38:01.865Z,5.83
2023-05-11T02:40:42.385Z,5.88
2023-05-11T02:43:13.186Z,5.91
2023-05-11T02:45:50.363Z,5.99
2023-05-11T02:48:27.696Z,6.09
2023-05-11T02:50:58.454Z,5.97
2023-05-11T02:53:33.619Z,6.15
2023-05-11T02:56:02.577Z,6.15
2023-05-11T02:58:32.621Z,6.06
2023-05-11T03:01:14.278Z,6.08
2023-05-11T03:03:42.367Z,6.04
2023-05-11T03:06:10.676Z,6.16
2023-05-11T03:08:38.698Z,6.29
2023-05-11T03:11:07.770Z,6.31
2023-05-11T03:13:35.976Z,6.42
2023-05-11T03:16:07.795Z,6.46
2023-05-11T03:18:37.364Z,6.43
2023-05-11T03:21:07.161Z,6.50
2023-05-11T03:23:36.992Z,6.56
2023-05-11T03:26:06.827Z,6.56
2023-05-11T03:28:38.513Z,6.70
2023-05-11T03:31:09.093Z,6.81
2023-05-11T03:33:37.278Z,6.91
2023-05-11T03:36:11.180Z,6.96
2023-05-11T03:38:40.308Z,6.95
2023-05-11T03:41:17.292Z,7.07
2023-05-11T03:43:51.835Z,7.13
2023-05-11T03:46:23.770Z,7.31
2023-05-11T03:48:52.721Z,7.31
2023-05-11T03:51:24.980Z,7.53
2023-05-11T03:53:52.693Z,7.50
2023-05-11T03:56:21.966Z,7.67
2023-05-11T03:58:50.330Z,7.65
2023-05-11T04:01:18.928Z,7.60
2023-05-11T04:03:51.560Z,7.68
2023-05-11T04:06:20.436Z,7.79
2023-05-11T04:08:54.922Z,8.62
2023-05-11T04:11:24.017Z,10.25
2023-05-11T04:13:51.742Z,10.11
2023-05-11T04:16:19.753Z,10.41
2023-05-11T04:18:48.381Z,12.42
2023-05-11T04:21:16.580Z,12.15
2023-05-11T04:23:44.266Z,11.61
2023-05-11T04:26:12.235Z,13.64
2023-05-11T04:28:39.846Z,14.82
2023-05-11T04:31:07.831Z,16.45
2023-05-11T04:33:35.487Z,17.05
2023-05-11T04:36:03.610Z,17.88
2023-05-11T04:38:31.421Z,18.17
2023-05-11T04:41:04.427Z,18.17
2023-05-11T04:43:32.484Z,17.97
2023-05-11T04:46:00.505Z,17.47
2023-05-11T04:48:29.952Z,16.24
2023-05-11T04:50:58.439Z,17.71
2023-05-11T04:53:30.927Z,18.12
2023-05-11T04:55:58.901Z,16.36
2023-05-11T04:58:27.468Z,15.41
2023-05-11T05:00:55.464Z,14.54
2023-05-11T05:03:23.235Z,14.33
2023-05-11T05:05:51.526Z,15.68
2023-05-11T05:08:19.245Z,16.75
2023-05-11T05:10:48.193Z,15.59
2023-05-11T05:13:16.980Z,15.73
2023-05-11T05:15:45.003Z,16.06
2023-05-11T05:18:13.079Z,15.81
2023-05-11T05:20:42.339Z,15.90
2023-05-11T05:23:10.152Z,16.66
2023-05-11T05:25:38.144Z,16.16
2023-05-11T05:28:07.117Z,16.09
2023-05-11T05:30:36.414Z,16.27
2023-05-11T05:33:04.413Z,16.86
2023-05-11T05:35:33.830Z,16.77
2023-05-11T05:38:02.023Z,16.15
2023-05-11T05:40:30.163Z,15.62
2023-05-11T05:42:58.037Z,14.83
2023-05-11T05:45:26.459Z,15.01
2023-05-11T05:47:57.167Z,15.26
2023-05-11T05:50:25.369Z,14.94
2023-05-11T05:52:53.474Z,17.46
2023-05-11T05:55:24.772Z,16.32
2023-05-11T05:57:53.450Z,15.88
2023-05-11T06:00:21.685Z,16.05
2023-05-11T06:02:57.896Z,16.38
2023-05-11T06:05:28.066Z,16.44
2023-05-11T06:08:09.194Z,17.29
2023-05-11T06:10:39.265Z,17.17
2023-05-11T06:13:09.594Z,17.57
2023-05-11T06:15:41.822Z,17.25
2023-05-11T06:18:18.854Z,17.20
2023-05-11T06:20:47.251Z,17.09
2023-05-11T06:23:16.837Z,16.99
2023-05-11T06:25:45.943Z,16.87
2023-05-11T06:28:14.318Z,17.49
2023-05-11T06:30:42.400Z,17.32
2023-05-11T06:33:10.878Z,17.41
2023-05-11T06:35:40.345Z,17.66
2023-05-11T06:38:10.425Z,18.33
2023-05-11T06:40:38.604Z,18.76
2023-05-11T06:43:06.647Z,18.98
2023-05-11T06:45:48.874Z,19.05
2023-05-11T06:48:17.098Z,18.93
2023-05-11T06:50:45.107Z,20.00
2023-05-11T06:53:17.871Z,21.00
2023-05-11T06:55:46.098Z,21.37
2023-05-11T06:58:14.356Z,22.09
2023-05-11T07:00:42.457Z,22.99
2023-05-11T07:03:10.403Z,24.29
2023-05-11T07:05:39.514Z,25.01
2023-05-11T07:08:07.351Z,24.96
2023-05-11T07:10:35.949Z,24.65
2023-05-11T07:13:03.743Z,25.16
2023-05-11T07:15:31.719Z,26.22
2023-05-11T07:18:01.479Z,27.46
2023-05-11T07:20:29.624Z,28.27
2023-05-11T07:22:59.318Z,28.87
2023-05-11T07:25:27.413Z,29.23
2023-05-11T07:27:55.124Z,29.54
2023-05-11T07:30:24.648Z,29.63
2023-05-11T07:32:52.785Z,30.20
2023-05-11T07:35:22.114Z,30.10
2023-05-11T07:37:51.066Z,29.92
2023-05-11T07:40:19.368Z,29.46
2023-05-11T07:42:47.376Z,29.75
2023-05-11T07:45:15.529Z,29.67
2023-05-11T07:47:43.425Z,29.60
2023-05-11T07:50:11.604Z,29.41
2023-05-11T07:52:39.613Z,29.49
2023-05-11T07:55:08.006Z,29.64
2023-05-11T07:57:35.762Z,30.25
2023-05-11T08:00:05.939Z,30.15
2023-05-11T08:02:39.489Z,29.58
2023-05-11T08:05:08.488Z,28.75
2023-05-11T08:07:37.456Z,28.83
2023-05-11T08:10:07.561Z,28.80
2023-05-11T08:12:36.931Z,28.64
2023-05-11T08:15:05.955Z,27.68
2023-05-11T08:17:34.497Z,27.79
2023-05-11T08:20:02.877Z,28.20
2023-05-11T08:22:31.100Z,27.90
2023-05-11T08:24:58.863Z,28.34
2023-05-11T08:27:26.765Z,28.43
2023-05-11T08:29:56.088Z,27.92
2023-05-11T08:32:24.260Z,28.69
2023-05-11T08:34:52.703Z,29.10
2023-05-11T08:37:20.760Z,28.89
2023-05-11T08:39:48.481Z,28.92
2023-05-11T08:42:17.481Z,28.70
2023-05-11T08:44:47.601Z,27.97
2023-05-11T08:47:23.329Z,27.38
2023-05-11T08:49:53.102Z,27.86
2023-05-11T08:52:21.242Z,28.05
2023-05-11T08:54:49.182Z,28.47
2023-05-11T08:57:17.612Z,27.29
2023-05-11T08:59:47.129Z,27.38
2023-05-11T09:02:17.932Z,27.36
2023-05-11T09:04:48.579Z,27.71
2023-05-11T09:07:18.683Z,28.21
2023-05-11T09:09:47.871Z,28.41
2023-05-11T09:12:17.218Z,28.43
2023-05-11T09:14:46.753Z,28.18
2023-05-11T09:17:14.947Z,27.57
2023-05-11T09:20:00.552Z,27.34
2023-05-11T09:22:31.409Z,26.72
2023-05-11T09:25:04.101Z,26.51
2023-05-11T09:27:32.511Z,26.39
2023-05-11T09:30:14.084Z,27.25
2023-05-11T09:32:56.894Z,27.29
2023-05-11T09:35:34.516Z,26.65
2023-05-11T09:38:09.329Z,26.19
2023-05-11T09:41:00.983Z,26.24
2023-05-11T09:43:30.803Z,26.74
2023-05-11T09:46:07.448Z,26.80
2023-05-11T09:48:35.921Z,27.70
2023-05-11T09:51:08.332Z,27.36
2023-05-11T09:53:45.912Z,27.61
2023-05-11T09:56:15.627Z,26.37
2023-05-11T09:58:51.950Z,26.23
2023-05-11T10:01:34.170Z,24.57
2023-05-11T10:04:21.361Z,24.06
2023-05-11T10:06:54.239Z,23.46
2023-05-11T10:09:26.648Z,24.67
2023-05-11T10:11:55.444Z,24.63
2023-05-11T10:14:24.828Z,22.98
2023-05-11T10:16:53.872Z,21.77
2023-05-11T10:19:22.518Z,20.68
2023-05-11T10:21:52.138Z,19.85
2023-05-11T10:24:20.595Z,19.53
2023-05-11T10:26:49.902Z,18.98
2023-05-11T10:29:20.303Z,18.81
2023-05-11T10:31:51.257Z,19.03
2023-05-11T10:34:23.287Z,18.86
2023-05-11T10:36:53.137Z,18.88
2023-05-11T10:39:21.991Z,18.90
2023-05-11T10:41:55.859Z,18.98
2023-05-11T10:45:11.018Z,19.18
2023-05-11T10:48:16.048Z,19.29
2023-05-11T10:51:20.988Z,19.04
2023-05-11T10:54:14.560Z,18.85
2023-05-11T10:57:12.372Z,18.78
2023-05-11T10:59:48.865Z,18.54
2023-05-11T11:02:18.751Z,18.49
2023-05-11T11:04:51.834Z,18.39
2023-05-11T11:07:21.068Z,18.47
2023-05-11T11:09:52.480Z,18.32
2023-05-11T11:12:21.654Z,18.39
2023-05-11T11:15:08.988Z,18.71
2023-05-11T11:17:37.232Z,18.79
2023-05-11T11:20:08.764Z,18.81
2023-05-11T11:22:41.428Z,18.89
2023-05-11T11:25:13.557Z,18.88
2023-05-11T11:27:41.828Z,18.83
2023-05-11T11:30:23.770Z,18.89
2023-05-11T11:33:08.108Z,18.91
2023-05-11T11:35:42.293Z,18.99
2023-05-11T11:38:12.964Z,19.10
2023-05-11T11:40:51.251Z,18.99
2023-05-11T11:43:22.692Z,18.94
2023-05-11T11:45:58.389Z,19.05
2023-05-11T11:48:40.724Z,19.01
2023-05-11T11:51:10.595Z,18.93
2023-05-11T11:53:40.887Z,18.82
2023-05-11T11:56:15.697Z,18.84
2023-05-11T11:58:44.443Z,18.81
2023-05-11T12:01:20.767Z,18.98
2023-05-11T12:04:18.088Z,18.98
2023-05-11T12:06:54.860Z,19.08
2023-05-11T12:09:23.576Z,19.12
2023-05-11T12:11:52.474Z,19.23
2023-05-11T12:14:21.515Z,19.21
2023-05-11T12:17:13.304Z,19.12
2023-05-11T12:19:43.467Z,19.15
2023-05-11T12:22:14.288Z,19.08
2023-05-11T12:24:42.962Z,19.19
2023-05-11T12:27:11.316Z,19.28
2023-05-11T12:29:40.812Z,19.36
2023-05-11T12:32:13.893Z,19.45
2023-05-11T12:34:42.083Z,19.25
2023-05-11T12:37:09.811Z,18.94
2023-05-11T12:39:39.680Z,18.94
2023-05-11T12:42:07.513Z,19.08
2023-05-11T12:44:35.656Z,19.25
2023-05-11T12:47:03.882Z,19.43
2023-05-11T12:49:32.223Z,19.33
2023-05-11T12:52:00.096Z,19.02
2023-05-11T12:54:31.278Z,19.15
2023-05-11T12:57:00.141Z,19.23
2023-05-11T12:59:39.512Z,19.35
2023-05-11T13:02:16.523Z,19.15
2023-05-11T13:04:47.037Z,19.14
2023-05-11T13:07:24.085Z,19.05
2023-05-11T13:10:01.848Z,19.25
2023-05-11T13:12:32.150Z,19.43
2023-05-11T13:15:12.866Z,19.30
2023-05-11T13:17:42.368Z,19.34
2023-05-11T13:20:33.401Z,19.27
2023-05-11T13:23:09.779Z,19.11
2023-05-11T13:25:49.727Z,19.02
2023-05-11T13:28:18.992Z,19.23
2023-05-11T13:30:47.570Z,19.31
2023-05-11T13:33:15.444Z,19.41
2023-05-11T13:35:44.695Z,19.33
2023-05-11T13:38:13.181Z,19.27
2023-05-11T13:40:41.313Z,19.12
2023-05-11T13:43:09.329Z,19.18
2023-05-11T13:45:40.150Z,19.25
2023-05-11T13:48:08.482Z,19.24
2023-05-11T13:50:36.606Z,19.15
2023-05-11T13:53:04.319Z,19.18
2023-05-11T13:55:32.401Z,19.29
2023-05-11T13:58:00.156Z,19.40
2023-05-11T14:00:28.283Z,19.32
2023-05-11T14:02:58.160Z,19.21
2023-05-11T14:05:26.636Z,19.21
2023-05-11T14:07:54.365Z,19.27
2023-05-11T14:10:22.667Z,19.24
2023-05-11T14:12:50.553Z,19.18
2023-05-11T14:15:18.771Z,19.20
2023-05-11T14:17:46.816Z,19.19
2023-05-11T14:20:15.451Z,19.08
2023-05-11T14:22:43.504Z,19.16
2023-05-11T14:25:11.475Z,19.26
2023-05-11T14:27:39.646Z,19.19
2023-05-11T14:30:08.558Z,19.21
2023-05-11T14:32:36.629Z,19.29
2023-05-11T14:35:04.636Z,19.25
2023-05-11T14:37:32.737Z,19.28
2023-05-11T14:40:00.955Z,19.31
2023-05-11T14:42:29.709Z,19.24
2023-05-11T14:44:57.436Z,19.31
2023-05-11T14:47:25.857Z,19.10
2023-05-11T14:49:53.692Z,19.09
2023-05-11T14:52:21.733Z,19.16
2023-05-11T14:54:49.576Z,19.17
2023-05-11T14:57:17.787Z,19.18
2023-05-11T14:59:58.404Z,19.17
2023-05-11T15:02:28.844Z,19.18
2023-05-11T15:04:56.987Z,19.27
2023-05-11T15:07:25.116Z,19.19
2023-05-11T15:09:53.011Z,19.04
2023-05-11T15:12:21.031Z,19.09
2023-05-11T15:14:49.010Z,19.01
2023-05-11T15:17:17.000Z,19.04
2023-05-11T15:19:44.900Z,18.98
2023-05-11T15:22:12.913Z,18.94
2023-05-11T15:24:41.252Z,19.03
2023-05-11T15:27:09.232Z,19.06
2023-05-11T15:29:36.963Z,19.05
2023-05-11T15:32:05.447Z,18.95
2023-05-11T15:34:33.925Z,18.87
2023-05-11T15:37:02.005Z,18.81
2023-05-11T15:39:29.756Z,18.92
2023-05-11T15:41:57.735Z,19.02
2023-05-11T15:44:25.458Z,18.96
2023-05-11T15:46:53.837Z,18.97
2023-05-11T15:49:22.352Z,18.83
2023-05-11T15:51:50.402Z,18.81
2023-05-11T15:54:18.117Z,18.74
2023-05-11T15:56:46.501Z,18.77
2023-05-11T15:59:14.158Z,18.71
2023-05-11T16:01:42.420Z,18.78
2023-05-11T16:04:10.148Z,18.61
2023-05-11T16:06:38.205Z,18.69
2023-05-11T16:09:05.976Z,18.58
2023-05-11T16:11:33.957Z,18.57
2023-05-11T16:14:01.598Z,18.58
2023-05-11T16:16:29.927Z,18.57
2023-05-11T16:18:59.387Z,18.57
2023-05-11T16:21:27.652Z,18.56
2023-05-11T16:23:55.348Z,18.42
2023-05-11T16:26:23.283Z,18.34
2023-05-11T16:28:50.949Z,18.38
2023-05-11T16:31:18.939Z,18.31
2023-05-11T16:33:46.665Z,18.24
2023-05-11T16:36:14.814Z,18.20
2023-05-11T16:38:42.551Z,18.18
2023-05-11T16:41:11.588Z,18.08
2023-05-11T16:43:41.884Z,18.09
2023-05-11T16:46:10.144Z,18.07
2023-05-11T16:48:38.122Z,17.90
2023-05-11T16:51:06.192Z,17.93
2023-05-11T16:53:33.918Z,17.89
2023-05-11T16:56:02.008Z,17.85
2023-05-11T16:58:31.018Z,17.79
2023-05-11T17:00:59.508Z,17.71
2023-05-11T17:03:27.297Z,17.65
2023-05-11T17:05:56.026Z,17.70
2023-05-11T17:08:23.968Z,17.57
2023-05-11T17:10:51.937Z,17.55
2023-05-11T17:13:19.758Z,17.35
2023-05-11T17:15:47.819Z,17.28
2023-05-11T17:18:15.656Z,17.19
2023-05-11T17:20:43.633Z,17.10
2023-05-11T17:23:11.334Z,17.23
2023-05-11T17:25:39.300Z,17.05
2023-05-11T17:28:07.042Z,16.90
2023-05-11T17:30:47.338Z,16.78
2023-05-11T17:33:17.254Z,16.85
2023-05-11T17:35:45.639Z,16.67
2023-05-11T17:38:13.330Z,16.58
2023-05-11T17:40:41.398Z,16.40
2023-05-11T17:43:09.128Z,16.27
2023-05-11T17:45:37.096Z,16.19
2023-05-11T17:48:05.178Z,16.03
2023-05-11T17:50:36.241Z,16.04
2023-05-11T17:53:04.068Z,15.94
2023-05-11T17:55:32.074Z,15.82
2023-05-11T17:57:59.827Z,15.68
2023-05-11T18:00:27.915Z,15.75
2023-05-11T18:02:55.954Z,15.49
2023-05-11T18:05:33.263Z,15.43
2023-05-11T18:08:09.262Z,15.28
2023-05-11T18:10:37.433Z,15.24
2023-05-11T18:13:05.958Z,15.08
2023-05-11T18:15:34.289Z,14.90
2023-05-11T18:18:02.318Z,14.79
2023-05-11T18:20:30.821Z,14.60
2023-05-11T18:22:58.665Z,14.54
2023-05-11T18:25:28.033Z,14.48
2023-05-11T18:27:55.693Z,14.58
2023-05-11T18:30:23.660Z,14.50
2023-05-11T18:32:51.900Z,14.33
2023-05-11T18:35:19.969Z,14.32
2023-05-11T18:37:48.013Z,14.40
2023-05-11T18:40:16.156Z,14.25
2023-05-11T18:42:44.238Z,14.25
2023-05-11T18:45:12.326Z,14.20
2023-05-11T18:47:42.947Z,14.08
2023-05-11T18:50:11.478Z,14.05
2023-05-11T18:52:39.279Z,13.96
2023-05-11T18:55:07.973Z,13.85
2023-05-11T18:57:35.963Z,13.61
2023-05-11T19:00:04.095Z,13.48
2023-05-11T19:02:33.195Z,13.53
2023-05-11T19:05:01.376Z,13.51
2023-05-11T19:07:29.241Z,13.42
2023-05-11T19:09:57.892Z,13.46
2023-05-11T19:12:25.667Z,13.34
2023-05-11T19:14:56.228Z,13.20
2023-05-11T19:17:24.501Z,13.17
2023-05-11T19:19:52.975Z,13.13
2023-05-11T19:22:21.451Z,12.92
2023-05-11T19:24:49.922Z,12.94
2023-05-11T19:27:17.611Z,12.92
2023-05-11T19:29:45.811Z,12.93
2023-05-11T19:32:14.182Z,12.65
2023-05-11T19:34:42.154Z,12.39
2023-05-11T19:37:09.767Z,12.30
2023-05-11T19:39:37.758Z,12.17
2023-05-11T19:42:05.449Z,12.15
2023-05-11T19:44:34.654Z,12.01
2023-05-11T19:47:02.286Z,11.93
2023-05-11T19:49:30.614Z,11.90
2023-05-11T19:51:58.209Z,11.99
2023-05-11T19:54:26.202Z,11.90
2023-05-11T19:56:54.224Z,11.84
2023-05-11T19:59:22.515Z,11.73
2023-05-11T20:01:50.169Z,11.74
2023-05-11T20:04:18.272Z,11.77
2023-05-11T20:06:45.908Z,11.76
2023-05-11T20:09:13.903Z,12.00
2023-05-11T20:11:41.573Z,11.76
2023-05-11T20:14:09.499Z,11.68
2023-05-11T20:16:37.433Z,11.70
2023-05-11T20:19:06.059Z,11.73
2023-05-11T20:21:35.844Z,11.78
2023-05-11T20:24:04.313Z,11.73
2023-05-11T20:26:32.155Z,11.73
2023-05-11T20:29:00.078Z,11.69
2023-05-11T20:31:27.988Z,11.51
2023-05-11T20:36:26.651Z,11.62
2023-05-11T20:38:54.611Z,11.60
2023-05-11T20:41:22.849Z,11.47
2023-05-11T20:43:52.220Z,11.72
2023-05-11T20:46:20.656Z,11.75
2023-05-11T20:48:51.794Z,11.57
2023-05-11T20:51:23.245Z,11.70
2023-05-11T20:53:51.619Z,11.54
2023-05-11T20:56:19.321Z,11.50
2023-05-11T20:58:47.526Z,11.50
2023-05-11T21:01:15.295Z,11.47
2023-05-11T21:03:43.371Z,11.56
2023-05-11T21:06:11.032Z,11.61
2023-05-11T21:08:38.994Z,11.56
2023-05-11T21:11:06.693Z,11.58
2023-05-11T21:13:34.633Z,11.49
2023-05-11T21:16:03.084Z,11.45
2023-05-11T21:18:34.928Z,11.47
2023-05-11T21:21:04.494Z,11.42
2023-05-11T21:23:32.540Z,11.35
2023-05-11T21:26:00.320Z,11.23
2023-05-11T21:28:29.421Z,11.12
2023-05-11T21:31:00.382Z,11.24
2023-05-11T21:33:28.532Z,11.24
2023-05-11T21:35:56.554Z,11.13
2023-05-11T21:38:24.705Z,11.09
2023-05-11T21:40:54.727Z,11.04
2023-05-11T21:43:23.152Z,10.75
2023-05-11T21:45:51.373Z,10.69
2023-05-11T21:48:19.546Z,11.05
2023-05-11T21:50:53.620Z,11.21
2023-05-11T21:53:22.212Z,10.93
2023-05-11T21:55:50.406Z,10.82
2023-05-11T21:58:18.467Z,10.74
2023-05-11T22:00:46.585Z,10.80
2023-05-11T22:03:14.897Z,10.78
2023-05-11T22:05:42.623Z,10.68
2023-05-11T22:08:15.318Z,10.72
2023-05-11T22:10:44.021Z,10.65
2023-05-11T22:13:12.071Z,10.58
2023-05-11T22:15:39.853Z,10.72
2023-05-11T22:18:07.846Z,10.59
2023-05-11T22:20:35.641Z,10.55
2023-05-11T22:23:03.697Z,10.28
2023-05-11T22:25:32.195Z,10.29
2023-05-11T22:28:00.802Z,10.38
2023-05-11T22:30:28.449Z,10.45
2023-05-11T22:32:56.452Z,10.42
2023-05-11T22:35:24.211Z,10.29
2023-05-11T22:37:52.201Z,10.36
2023-05-11T22:40:20.195Z,10.16
2023-05-11T22:42:48.360Z,10.21
2023-05-11T22:45:16.543Z,10.06
2023-05-11T22:47:44.598Z,10.05
2023-05-11T22:50:12.390Z,10.31
2023-05-11T22:52:40.440Z,10.17
2023-05-11T22:55:08.670Z,10.18
2023-05-11T22:57:37.170Z,10.16
2023-05-11T23:00:05.500Z,10.28
2023-05-11T23:02:35.721Z,10.13
2023-05-11T23:05:03.875Z,10.02
2023-05-11T23:07:31.971Z,10.09
2023-05-11T23:09:59.664Z,9.93
2023-05-11T23:12:27.866Z,9.82
2023-05-11T23:14:55.554Z,10.00
2023-05-11T23:17:23.597Z,10.04
2023-05-11T23:19:51.326Z,9.93
2023-05-11T23:22:19.344Z,10.06
2023-05-11T23:24:47.065Z,9.95
2023-05-11T23:27:14.994Z,9.96
2023-05-11T23:29:42.805Z,9.85
2023-05-11T23:32:10.793Z,9.72
2023-05-11T23:34:38.381Z,9.72
2023-05-11T23:37:06.501Z,9.84
2023-05-11T23:39:34.131Z,9.79
2023-05-11T23:42:02.174Z,9.76
2023-05-11T23:44:29.861Z,9.90
2023-05-11T23:46:57.970Z,10.04
2023-05-11T23:49:26.110Z,9.94
2023-05-11T23:51:54.287Z,10.07
2023-05-11T23:54:22.020Z,10.04
2023-05-11T23:56:49.960Z,9.88
2023-05-11T23:59:17.598Z,9.90
